Time;durP1;ratioP1;P1;durP2;ratioP2;P2;SDS_P1;SDS_P2;PMS_P1;PMS_P2;Temp;Humidity;BMP_temperature;BMP_pressure;BME280_temperature;BME280_humidity;BME280_pressure;Samples;Min_cycle;Max_cycle;Signal;HPM_P1;HPM_P2
2021/05/14 00:06:22;;;;;;;5.38;2.08;;;;;;;8.39;100.00;99541.91;20572117;23;20049;-84
2021/05/14 00:16:25;;;;;;;4.07;2.22;;;;;;;8.18;100.00;99538.78;20642930;28;20451;-84
2021/05/14 00:26:30;;;;;;;6.57;2.63;;;;;;;8.19;100.00;99547.44;20663063;28;20065;-84
2021/05/14 00:36:32;;;;;;;4.75;2.70;;;;;;;8.20;100.00;99545.66;20571025;28;20290;-84
2021/05/14 00:46:34;;;;;;;5.00;2.50;;;;;;;8.29;100.00;99540.75;20591221;28;20051;-85
2021/05/14 00:56:36;;;;;;;5.38;3.08;;;;;;;8.39;100.00;99543.69;20570182;28;20191;-84
2021/05/14 01:06:38;;;;;;;5.55;2.72;;;;;;;8.36;100.00;99538.66;20574601;28;20043;-83
2021/05/14 01:16:40;;;;;;;5.72;2.92;;;;;;;8.41;100.00;99534.03;20643717;28;20050;-84
2021/05/14 01:26:42;;;;;;;8.43;3.20;;;;;;;8.31;100.00;99533.72;20665400;28;20053;-83
2021/05/14 01:36:44;;;;;;;5.30;3.15;;;;;;;8.18;100.00;99533.56;20658066;28;20043;-83
2021/05/14 01:46:47;;;;;;;6.55;3.95;;;;;;;8.07;100.00;99529.91;20655750;28;20054;-82
2021/05/14 01:56:51;;;;;;;6.57;3.78;;;;;;;7.94;100.00;99531.53;20680884;28;20116;-84
2021/05/14 02:06:53;;;;;;;8.60;3.83;;;;;;;7.80;100.00;99531.47;20672775;28;20436;-82
2021/05/14 02:16:54;;;;;;;7.85;4.43;;;;;;;7.73;100.00;99536.19;20658884;28;20114;-83
2021/05/14 02:26:56;;;;;;;6.78;4.00;;;;;;;7.60;100.00;99524.78;20678149;28;20054;-83
2021/05/14 02:36:58;;;;;;;7.05;4.38;;;;;;;7.50;100.00;99531.44;20674364;28;20045;-82
2021/05/14 02:47:01;;;;;;;7.40;4.10;;;;;;;7.38;100.00;99522.53;20581475;28;20050;-83
2021/05/14 02:57:04;;;;;;;7.18;4.00;;;;;;;7.35;100.00;99514.91;20579627;28;20054;-83
2021/05/14 03:07:06;;;;;;;8.23;3.92;;;;;;;7.24;100.00;99517.25;20587081;28;20039;-83
2021/05/14 03:17:08;;;;;;;7.93;4.40;;;;;;;7.14;100.00;99518.69;20671084;28;20465;-83
2021/05/14 03:27:33;;;;;;;8.47;4.73;;;;;;;7.10;100.00;99524.97;20657979;28;20042;-83
2021/05/14 03:37:35;;;;;;;8.00;4.85;;;;;;;6.99;100.00;99522.09;20645145;28;20050;-84
2021/05/14 03:47:38;;;;;;;8.57;5.35;;;;;;;6.92;100.00;99528.53;20672494;28;20058;-83
2021/05/14 03:57:41;;;;;;;13.52;6.40;;;;;;;6.85;100.00;99521.09;20668446;28;20054;-83
2021/05/14 04:07:43;;;;;;;11.80;6.60;;;;;;;6.85;100.00;99528.91;20628758;28;20054;-83
2021/05/14 04:17:45;;;;;;;9.85;5.25;;;;;;;6.89;100.00;99524.38;20571572;28;20465;-83
2021/05/14 04:27:47;;;;;;;8.60;4.65;;;;;;;7.04;100.00;99530.50;20588852;28;20046;-83
2021/05/14 04:37:48;;;;;;;8.20;4.43;;;;;;;7.75;100.00;99536.97;20593365;28;20042;-82
2021/05/14 04:47:50;;;;;;;7.43;4.00;;;;;;;8.33;100.00;99537.06;20657513;28;20097;-83
2021/05/14 04:57:52;;;;;;;6.40;3.85;;;;;;;8.28;100.00;99544.28;20666697;28;20050;-84
2021/05/14 05:07:54;;;;;;;8.02;4.35;;;;;;;8.42;100.00;99540.91;20667512;28;20089;-83
2021/05/14 05:17:56;;;;;;;8.05;3.97;;;;;;;8.73;100.00;99564.25;20584138;28;20054;-84
2021/05/14 05:27:58;;;;;;;8.40;5.07;;;;;;;8.93;100.00;99563.03;20601186;28;20051;-84
2021/05/14 05:38:00;;;;;;;6.78;4.43;;;;;;;9.30;100.00;99567.66;20585922;28;20060;-82
2021/05/14 05:48:02;;;;;;;6.90;3.70;;;;;;;9.77;99.26;99566.44;20654862;28;20062;-83
2021/05/14 05:58:09;;;;;;;5.88;3.17;;;;;;;10.17;97.34;99581.25;20643155;28;20046;-83
2021/05/14 06:08:11;;;;;;;5.38;2.72;;;;;;;10.31;95.38;99571.66;20587780;28;20039;-83
2021/05/14 06:18:15;;;;;;;5.65;2.50;;;;;;;10.70;92.89;99582.06;20574931;28;20055;-84
2021/05/14 06:28:20;;;;;;;5.18;2.38;;;;;;;10.82;92.04;99583.84;20544567;28;20043;-82
2021/05/14 06:38:23;;;;;;;5.18;1.80;;;;;;;11.06;90.07;99586.56;20568587;28;20440;-83
2021/05/14 06:48:24;;;;;;;4.03;1.13;;;;;;;11.22;84.68;99597.66;20568755;28;20419;-84
2021/05/14 06:58:26;;;;;;;2.17;0.90;;;;;;;11.39;83.29;99585.97;20561836;28;20053;-84
2021/05/14 07:08:27;;;;;;;4.50;1.08;;;;;;;11.55;83.02;99591.81;20621272;28;20496;-85
2021/05/14 07:18:29;;;;;;;3.67;1.05;;;;;;;11.82;82.14;99613.47;20577160;28;20130;-86
2021/05/14 07:28:31;;;;;;;3.65;0.88;;;;;;;11.92;80.63;99608.41;20547328;28;20055;-86
2021/05/14 07:38:33;;;;;;;3.42;1.00;;;;;;;12.29;77.86;99609.19;20622774;28;20174;-87
2021/05/14 07:48:34;;;;;;;3.70;1.52;;;;;;;12.58;78.75;99609.63;20578692;28;20122;-84
2021/05/14 07:58:37;;;;;;;3.15;0.70;;;;;;;12.77;75.88;99602.88;20544875;28;20102;-84
2021/05/14 08:08:40;;;;;;;2.30;1.00;;;;;;;12.92;74.40;99597.41;20555003;28;20059;-86
2021/05/14 08:18:43;;;;;;;1.30;0.40;;;;;;;13.22;71.13;99602.94;20524018;28;20073;-84
2021/05/14 08:28:44;;;;;;;1.55;0.70;;;;;;;13.36;68.78;99588.75;20565026;28;20066;-83
2021/05/14 08:38:46;;;;;;;2.00;0.60;;;;;;;14.47;67.45;99599.84;20608571;28;20069;-85
2021/05/14 08:48:48;;;;;;;0.60;0.30;;;;;;;14.83;61.87;99587.19;20621673;28;20133;-82
2021/05/14 08:58:50;;;;;;;0.95;0.50;;;;;;;14.64;62.95;99600.19;20598985;28;20097;-84
2021/05/14 09:08:57;;;;;;;2.45;0.88;;;;;;;15.08;64.61;99599.94;20587839;28;20035;-84
2021/05/14 09:19:00;;;;;;;3.88;0.70;;;;;;;15.53;62.00;99613.59;20550271;28;20047;-84
2021/05/14 09:29:04;;;;;;;1.37;0.60;;;;;;;15.32;62.62;99600.44;20571257;28;20047;-84
2021/05/14 09:39:08;;;;;;;3.90;1.20;;;;;;;15.02;62.14;99607.53;20571785;28;20053;-84
2021/05/14 09:49:17;;;;;;;6.00;1.50;;;;;;;15.10;62.43;99597.97;20579967;28;20051;-85
2021/05/14 09:59:21;;;;;;;1.45;0.63;;;;;;;15.51;59.70;99591.78;20505743;28;20058;-86
2021/05/14 10:09:25;;;;;;;2.33;0.93;;;;;;;16.49;55.46;99589.13;20576063;28;20046;-85
2021/05/14 10:19:29;;;;;;;4.70;0.50;;;;;;;16.17;56.19;99579.69;20582657;28;20612;-86
2021/05/14 10:29:37;;;;;;;2.88;0.40;;;;;;;16.89;53.54;99560.72;20638819;28;20543;-87
2021/05/14 10:39:47;;;;;;;2.45;0.50;;;;;;;16.53;50.58;99553.53;20600523;28;20130;-85
2021/05/14 10:49:54;;;;;;;1.02;0.55;;;;;;;16.75;50.44;99552.41;20616639;28;20050;-88
2021/05/14 10:59:57;;;;;;;4.65;0.90;;;;;;;16.31;54.05;99553.81;20661039;28;20077;-85
2021/05/14 11:10:31;;;;;;;2.83;0.70;;;;;;;17.04;51.26;99546.06;20555348;28;20038;-86
2021/05/14 11:20:46;;;;;;;0.82;0.40;;;;;;;16.85;51.05;99548.78;20585063;28;20050;-84
2021/05/14 11:30:54;;;;;;;1.17;0.30;;;;;;;17.42;47.69;99539.75;20579116;28;20121;-83
2021/05/14 11:40:57;;;;;;;0.57;0.32;;;;;;;17.08;46.03;99536.00;20616776;28;20534;-82
2021/05/14 11:50:59;;;;;;;1.98;0.60;;;;;;;17.15;47.19;99541.56;20556964;28;20046;-84
2021/05/14 12:01:03;;;;;;;2.53;0.45;;;;;;;17.37;47.04;99518.19;20569019;28;20058;-83
2021/05/14 12:11:15;;;;;;;1.50;0.40;;;;;;;17.33;46.47;99521.28;20580792;28;20051;-84
2021/05/14 12:21:24;;;;;;;2.03;0.35;;;;;;;17.88;44.88;99528.19;20593266;28;20134;-83
2021/05/14 12:31:26;;;;;;;3.38;0.43;;;;;;;16.14;49.79;99569.41;20615375;28;20057;-83
2021/05/14 12:41:31;;;;;;;7.50;0.85;;;;;;;14.96;58.15;99574.63;20573043;28;20129;-82
2021/05/14 12:51:33;;;;;;;1.77;0.57;;;;;;;14.50;69.52;99562.69;20545572;28;20125;-82
2021/05/14 13:01:35;;;;;;;1.92;0.40;;;;;;;16.21;61.05;99565.22;20592514;28;20464;-83
2021/05/14 13:11:39;;;;;;;1.67;0.30;;;;;;;16.90;52.04;99559.75;20620786;28;20051;-83
2021/05/14 13:21:41;;;;;;;1.47;0.30;;;;;;;16.97;52.04;99552.06;20607844;28;20109;-81
2021/05/14 13:31:44;;;;;;;1.48;0.40;;;;;;;16.66;50.03;99543.50;20580847;28;20102;-81
2021/05/14 13:41:46;;;;;;;2.42;0.75;;;;;;;17.09;54.08;99551.75;20632205;28;20043;-82
2021/05/14 13:51:47;;;;;;;1.20;0.40;;;;;;;17.26;53.06;99562.53;20591139;28;20501;-82
2021/05/14 14:01:50;;;;;;;4.00;0.73;;;;;;;17.01;53.42;99579.88;20590175;28;20047;-81
2021/05/14 14:11:53;;;;;;;1.83;0.70;;;;;;;16.55;54.71;99604.44;20613236;28;20051;-82
2021/05/14 14:21:56;;;;;;;3.50;0.40;;;;;;;15.51;55.69;99638.41;20587416;28;20043;-82
2021/05/14 14:31:59;;;;;;;1.70;0.52;;;;;;;14.28;63.06;99647.00;20583839;28;20071;-83
2021/05/14 14:42:02;;;;;;;3.10;0.90;;;;;;;12.93;78.11;99676.09;20655656;28;20058;-83
2021/05/14 14:52:04;;;;;;;2.58;0.70;;;;;;;11.86;90.79;99672.63;20523593;28;20081;-83
2021/05/14 15:02:06;;;;;;;4.55;1.30;;;;;;;11.69;96.77;99674.72;20572811;28;20047;-82
2021/05/14 15:12:09;;;;;;;4.47;1.30;;;;;;;12.05;93.69;99627.53;20595636;28;20719;-83
2021/05/14 15:22:12;;;;;;;2.50;1.10;;;;;;;13.24;88.90;99614.19;20595409;28;20051;-83
2021/05/14 15:32:14;;;;;;;5.28;0.70;;;;;;;13.65;89.35;99597.78;20561817;28;20067;-81
2021/05/14 15:42:17;;;;;;;3.47;0.95;;;;;;;14.10;82.59;99596.72;20590257;28;20055;-81
2021/05/14 15:52:18;;;;;;;3.30;0.88;;;;;;;14.13;85.05;99617.50;20575444;28;20102;-82
2021/05/14 16:02:22;;;;;;;1.33;0.70;;;;;;;13.65;88.98;99616.19;20564673;28;20093;-83
2021/05/14 16:12:24;;;;;;;12.00;2.92;;;;;;;13.38;92.46;99649.91;20578011;28;20142;-83
2021/05/14 16:22:26;;;;;;;2.45;0.80;;;;;;;13.03;96.31;99660.47;20586310;28;20412;-82
2021/05/14 16:32:28;;;;;;;4.55;1.40;;;;;;;12.38;100.00;99687.22;20535126;28;20505;-81
2021/05/14 16:42:35;;;;;;;5.15;1.20;;;;;;;11.85;100.00;99686.66;20598664;28;20055;-82
2021/05/14 16:52:39;;;;;;;4.88;1.35;;;;;;;11.53;100.00;99667.09;20591644;28;20110;-81
2021/05/14 17:02:41;;;;;;;2.08;1.05;;;;;;;12.20;96.46;99649.19;20602050;28;20102;-82
2021/05/14 17:12:43;;;;;;;3.45;1.15;;;;;;;12.52;98.66;99637.19;20589402;28;20058;-83
2021/05/14 17:22:45;;;;;;;2.88;1.33;;;;;;;12.52;97.50;99637.19;20602862;28;20054;-82
2021/05/14 17:32:47;;;;;;;6.07;2.45;;;;;;;12.58;100.00;99643.75;20569618;28;20055;-83
2021/05/14 17:42:51;;;;;;;4.60;1.50;;;;;;;12.43;100.00;99637.88;20588539;28;20504;-83
2021/05/14 17:52:52;;;;;;;6.45;1.30;;;;;;;12.26;100.00;99648.75;20587091;28;20105;-84
2021/05/14 18:02:54;;;;;;;3.78;1.35;;;;;;;12.10;100.00;99648.19;20591904;28;20050;-82
2021/05/14 18:12:58;;;;;;;4.60;1.50;;;;;;;12.35;100.00;99643.66;20595544;28;20085;-83
2021/05/14 18:23:00;;;;;;;2.20;1.00;;;;;;;12.33;100.00;99629.00;20608917;28;20055;-83
2021/05/14 18:33:01;;;;;;;4.32;1.85;;;;;;;12.32;100.00;99643.06;20558115;28;20481;-82
2021/05/14 18:43:04;;;;;;;4.40;1.20;;;;;;;12.25;100.00;99642.66;20591075;28;20134;-83
2021/05/14 18:53:06;;;;;;;4.05;1.00;;;;;;;11.96;100.00;99651.81;20558839;28;20054;-82
2021/05/14 19:03:08;;;;;;;3.10;1.13;;;;;;;11.62;100.00;99640.25;20603822;28;20050;-82
2021/05/14 19:13:10;;;;;;;2.45;1.20;;;;;;;11.44;100.00;99657.25;20600809;28;20096;-83
2021/05/14 19:23:30;;;;;;;15.27;8.10;;;;;;;11.26;100.00;99655.91;20574840;28;20545;-83
2021/05/14 19:54:06;;;;;;;6.32;1.60;;;;;;;10.88;100.00;99685.53;20609578;28;20046;-83
2021/05/14 20:04:09;;;;;;;3.03;1.10;;;;;;;10.76;100.00;99691.59;20603103;28;20416;-82
2021/05/14 20:14:13;;;;;;;3.20;1.20;;;;;;;10.62;100.00;99696.88;20534378;28;20063;-82
2021/05/14 20:24:16;;;;;;;4.13;1.50;;;;;;;10.37;100.00;99715.09;20555689;28;20046;-81
2021/05/14 20:34:19;;;;;;;4.03;1.90;;;;;;;10.16;100.00;99725.16;20564942;28;20469;-80
2021/05/14 20:44:25;;;;;;;3.72;1.80;;;;;;;10.01;100.00;99742.63;20550824;28;20404;-81
2021/05/14 20:54:27;;;;;;;;;;;;;;;9.88;100.00;99749.56;20599357;28;20043;-82
2021/05/14 21:04:30;;;;;;;4.57;1.98;;;;;;;9.72;100.00;99752.28;20616962;28;19921;-81
2021/05/14 21:14:32;;;;;;;3.58;1.90;;;;;;;9.70;100.00;99756.72;20629025;28;20054;-80
2021/05/14 21:24:34;;;;;;;4.97;1.67;;;;;;;9.59;100.00;99777.47;20683389;28;20050;-81
2021/05/14 21:34:36;;;;;;;3.30;1.27;;;;;;;9.47;100.00;99772.97;20667078;28;20094;-81
2021/05/14 21:44:37;;;;;;;4.03;1.50;;;;;;;9.39;100.00;99764.75;20627198;28;20039;-81
2021/05/14 21:54:37;;;;;;;3.45;1.88;;;;;;;9.21;100.00;99753.63;20559568;28;20031;-82
2021/05/14 22:04:38;;;;;;;7.05;2.58;;;;;;;9.11;100.00;99754.25;20579151;28;20592;-82
2021/05/14 22:14:43;;;;;;;8.02;2.83;;;;;;;8.97;100.00;99752.44;20629383;28;20075;-81
2021/05/14 22:24:43;;;;;;;6.00;2.72;;;;;;;8.89;100.00;99749.41;20624081;28;20496;-81
2021/05/14 22:34:47;;;;;;;5.72;2.95;;;;;;;8.83;100.00;99744.59;20649759;28;20092;-79
2021/05/14 22:44:48;;;;;;;8.30;3.73;;;;;;;8.77;100.00;99737.94;20641481;28;20046;-80
2021/05/14 22:54:48;;;;;;;10.73;4.90;;;;;;;8.75;100.00;99742.41;20590407;28;20130;-80
2021/05/14 23:04:49;;;;;;;9.05;5.20;;;;;;;8.75;100.00;99742.41;20606716;28;20042;-81
2021/05/14 23:14:50;;;;;;;11.07;5.32;;;;;;;8.79;100.00;99740.44;20642802;28;20400;-80
2021/05/14 23:24:51;;;;;;;14.18;5.35;;;;;;;8.93;100.00;99737.91;20656464;28;20492;-80
2021/05/14 23:34:51;;;;;;;7.50;4.85;;;;;;;9.15;100.00;99730.47;20653182;28;20373;-79
2021/05/14 23:44:52;;;;;;;7.70;4.40;;;;;;;9.33;100.00;99726.78;20619510;28;20066;-81
2021/05/14 23:54:53;;;;;;;6.20;4.05;;;;;;;9.41;100.00;99732.38;20589519;28;20046;-79
